Time;durP1;ratioP1;P1;durP2;ratioP2;P2;SDS_P1;SDS_P2;PMS_P1;PMS_P2;Temp;Humidity;BMP_temperature;BMP_pressure;BME280_temperature;BME280_humidity;BME280_pressure;Samples;Min_cycle;Max_cycle;Signal;HPM_P1;HPM_P2
2023/01/12 00:00:48;;;;;;;;;;;;;;;;;;5054528;28;19958;-76
2023/01/12 00:03:14;;;;;;;;;;;;;;;;;;5054744;28;20324;-76
2023/01/12 00:05:39;;;;;;;;;;;;;;;;;;5054451;28;20423;-75
2023/01/12 00:08:05;;;;;;;;;;;;;;;;;;5054479;28;19909;-76
2023/01/12 00:10:31;;;;;;;;;;;;;;;;;;5054840;28;20007;-76
2023/01/12 00:12:57;;;;;;;;;;;;;;;;;;5054708;28;19979;-76
2023/01/12 00:18:07;;;;;;;;;;;;;;;;;;5053971;28;19963;-75
2023/01/12 00:20:33;;;;;;;;;;;;;;;;;;5054194;28;19909;-76
2023/01/12 00:22:59;;;;;;;;;;;;;;;;;;5054186;28;20348;-76
2023/01/12 00:25:25;;;;;;;;;;;;;;;;;;5054296;28;19909;-75
2023/01/12 00:27:51;;;;;;;;;;;;;;;;;;5054121;28;19909;-75
2023/01/12 00:30:17;;;;;;;;;;;;;;;;;;5053996;28;19991;-75
2023/01/12 00:32:43;;;;;;;;;;;;;;;;;;5053175;28;19994;-77
2023/01/12 00:35:09;;;;;;;;;;;;;;;;;;5053821;28;19920;-76
2023/01/12 00:37:35;;;;;;;;;;;;;;;;;;5054017;28;20328;-76
2023/01/12 00:40:01;;;;;;;;;;;;;;;;;;5052614;28;20377;-76
2023/01/12 00:45:20;;;;;;;;;;;;;;;;;;5053610;28;20435;-77
2023/01/12 00:47:46;;;;;;;;;;;;;;;;;;5054025;28;20304;-77
2023/01/12 00:50:12;;;;;;;;;;;;;;;;;;5053777;28;19909;-76
2023/01/12 00:52:38;;;;;;;;;;;;;;;;;;5053643;28;19974;-76
2023/01/12 00:55:04;;;;;;;;;;;;;;;;;;5053837;28;19909;-75
2023/01/12 00:57:30;;;;;;;;;;;;;;;;;;5053595;28;20023;-75
2023/01/12 00:59:58;;;;;;;;;;;;;;;;;;5053819;28;20400;-76
2023/01/12 01:02:23;;;;;;;;;;;;;;;;;;5053606;28;19990;-76
2023/01/12 01:04:49;;;;;;;;;;;;;;;;;;5052268;28;19909;-76
2023/01/12 01:07:16;;;;;;;;;;;;;;;;;;5053805;28;20380;-75
2023/01/12 01:09:43;;;;;;;;;;;;;;;;;;5053739;28;19916;-76
2023/01/12 01:12:08;;;;;;;;;;;;;;;;;;5052219;28;19908;-75
2023/01/12 01:14:34;;;;;;;;;;;;;;;;;;5053508;28;19974;-75
2023/01/12 01:17:00;;;;;;;;;;;;;;;;;;5053639;28;19909;-76
2023/01/12 01:19:26;;;;;;;;;;;;;;;;;;5053346;28;19921;-74
2023/01/12 01:21:52;;;;;;;;;;;;;;;;;;5052141;28;19932;-76
2023/01/12 01:24:18;;;;;;;;;;;;;;;;;;5052093;28;20385;-75
2023/01/12 01:26:44;;;;;;;;;;;;;;;;;;5053407;28;19916;-76
2023/01/12 01:29:10;;;;;;;;;;;;;;;;;;5053323;28;19909;-76
2023/01/12 01:31:36;;;;;;;;;;;;;;;;;;5053485;28;19909;-75
2023/01/12 01:34:02;;;;;;;;;;;;;;;;;;5053337;28;20431;-76
2023/01/12 01:36:28;;;;;;;;;;;;;;;;;;5052964;28;19966;-76
2023/01/12 01:38:54;;;;;;;;;;;;;;;;;;5053225;28;19948;-75
2023/01/12 01:41:20;;;;;;;;;;;;;;;;;;5053503;28;20293;-75
2023/01/12 01:43:45;;;;;;;;;;;;;;;;;;5055864;28;20426;-75
2023/01/12 01:46:11;;;;;;;;;;;;;;;;;;5055868;28;19913;-76
2023/01/12 01:48:37;;;;;;;;;;;;;;;;;;5057058;28;19994;-76
2023/01/12 01:51:03;;;;;;;;;;;;;;;;;;5057044;28;19944;-76
2023/01/12 01:53:29;;;;;;;;;;;;;;;;;;5057088;28;19909;-76
2023/01/12 01:55:55;;;;;;;;;;;;;;;;;;5056954;28;20320;-75
2023/01/12 01:58:21;;;;;;;;;;;;;;;;;;5056813;28;19912;-76
2023/01/12 02:00:47;;;;;;;;;;;;;;;;;;5056871;28;19913;-76
2023/01/12 02:03:13;;;;;;;;;;;;;;;;;;5055525;28;19913;-75
2023/01/12 02:05:39;;;;;;;;;;;;;;;;;;5056921;28;19995;-76
2023/01/12 02:08:05;;;;;;;;;;;;;;;;;;5056735;28;19909;-76
2023/01/12 02:10:31;;;;;;;;;;;;;;;;;;5056727;28;19908;-76
2023/01/12 02:18:26;;;;;;;;;;;;;;;;;;5056277;28;19920;-75
2023/01/12 02:20:52;;;;;;;;;;;;;;;;;;5056979;28;20288;-75
2023/01/12 02:23:18;;;;;;;;;;;;;;;;;;5056847;28;19931;-76
2023/01/12 02:25:44;;;;;;;;;;;;;;;;;;5056426;28;19992;-76
2023/01/12 02:28:10;;;;;;;;;;;;;;;;;;5056453;28;19909;-76
2023/01/12 02:30:36;;;;;;;;;;;;;;;;;;5056313;28;19916;-75
2023/01/12 02:33:02;;;;;;;;;;;;;;;;;;5056269;28;19909;-76
2023/01/12 02:35:28;;;;;;;;;;;;;;;;;;5054735;28;19917;-75
2023/01/12 02:37:54;;;;;;;;;;;;;;;;;;5056113;28;20016;-77
2023/01/12 02:40:20;;;;;;;;;;;;;;;;;;5056166;28;20353;-76
2023/01/12 02:42:48;;;;;;;;;;;;;;;;;;5056095;28;19915;-77
2023/01/12 02:45:14;;;;;;;;;;;;;;;;;;5056094;28;20409;-75
2023/01/12 02:47:40;;;;;;;;;;;;;;;;;;5056199;28;19951;-76
2023/01/12 02:50:06;;;;;;;;;;;;;;;;;;5056067;28;19909;-76
2023/01/12 02:52:32;;;;;;;;;;;;;;;;;;5055906;28;19909;-76
2023/01/12 02:54:58;;;;;;;;;;;;;;;;;;5054767;28;19909;-76
2023/01/12 02:57:24;;;;;;;;;;;;;;;;;;5056105;28;20369;-75
2023/01/12 02:59:49;;;;;;;;;;;;;;;;;;5055786;28;19999;-75
2023/01/12 03:02:15;;;;;;;;;;;;;;;;;;5055743;28;19913;-76
2023/01/12 03:04:41;;;;;;;;;;;;;;;;;;5055764;28;20292;-77
2023/01/12 03:07:07;;;;;;;;;;;;;;;;;;5055641;28;20285;-77
2023/01/12 03:09:33;;;;;;;;;;;;;;;;;;5054329;28;19955;-75
2023/01/12 03:11:59;;;;;;;;;;;;;;;;;;5055600;28;19958;-76
2023/01/12 03:14:25;;;;;;;;;;;;;;;;;;5055515;28;20323;-76
2023/01/12 03:16:51;;;;;;;;;;;;;;;;;;5055515;28;20353;-76
2023/01/12 03:19:17;;;;;;;;;;;;;;;;;;5055365;28;20292;-75
2023/01/12 03:21:43;;;;;;;;;;;;;;;;;;5055595;28;19971;-75
2023/01/12 03:24:09;;;;;;;;;;;;;;;;;;5055338;28;20388;-76
2023/01/12 03:26:35;;;;;;;;;;;;;;;;;;5055244;28;19909;-76
2023/01/12 03:29:01;;;;;;;;;;;;;;;;;;5055232;28;19909;-76
2023/01/12 03:31:27;;;;;;;;;;;;;;;;;;5055234;28;19913;-76
2023/01/12 03:33:52;;;;;;;;;;;;;;;;;;5055142;28;19909;-76
2023/01/12 03:36:19;;;;;;;;;;;;;;;;;;5053440;28;20451;-75
2023/01/12 03:38:45;;;;;;;;;;;;;;;;;;5055122;28;19923;-75
2023/01/12 03:41:11;;;;;;;;;;;;;;;;;;5054952;28;19908;-75
2023/01/12 03:43:37;;;;;;;;;;;;;;;;;;5054984;28;20012;-76
2023/01/12 03:46:03;;;;;;;;;;;;;;;;;;5054903;28;20306;-77
2023/01/12 03:48:29;;;;;;;;;;;;;;;;;;5055433;28;19916;-75
2023/01/12 03:50:55;;;;;;;;;;;;;;;;;;5054821;28;19909;-75
2023/01/12 03:53:21;;;;;;;;;;;;;;;;;;5054893;28;19913;-76
2023/01/12 03:55:47;;;;;;;;;;;;;;;;;;5054775;28;19919;-75
2023/01/12 03:58:12;;;;;;;;;;;;;;;;;;5054632;28;20270;-75
2023/01/12 04:00:38;;;;;;;;;;;;;;;;;;5055080;28;20380;-75
2023/01/12 04:03:04;;;;;;;;;;;;;;;;;;5054941;28;19909;-75
2023/01/12 04:05:30;;;;;;;;;;;;;;;;;;5054326;28;20003;-76
2023/01/12 04:07:56;;;;;;;;;;;;;;;;;;5054637;28;19912;-77
2023/01/12 04:10:22;;;;;;;;;;;;;;;;;;5054471;28;19908;-76
2023/01/12 04:12:48;;;;;;;;;;;;;;;;;;5054397;28;19916;-76
2023/01/12 04:15:14;;;;;;;;;;;;;;;;;;5054367;28;19909;-76
2023/01/12 04:17:40;;;;;;;;;;;;;;;;;;5052907;28;19909;-76
2023/01/12 04:20:08;;;;;;;;;;;;;;;;;;5054405;28;19959;-76
2023/01/12 04:22:43;;;;;;;;;;;;;;;;;;5054253;28;19999;-76
2023/01/12 04:25:09;;;;;;;;;;;;;;;;;;5054106;28;19909;-76
2023/01/12 04:27:35;;;;;;;;;;;;;;;;;;5054168;28;19916;-76
2023/01/12 04:30:01;;;;;;;;;;;;;;;;;;5052801;28;19912;-76
2023/01/12 04:32:27;;;;;;;;;;;;;;;;;;5054079;28;19959;-76
2023/01/12 04:34:53;;;;;;;;;;;;;;;;;;5053737;28;20364;-76
2023/01/12 04:37:19;;;;;;;;;;;;;;;;;;5054463;28;19920;-76
2023/01/12 04:39:45;;;;;;;;;;;;;;;;;;5054294;28;19923;-76
2023/01/12 04:42:59;;;;;;;;;;;;;;;;;;5053907;28;20276;-76
2023/01/12 04:44:56;;;;;;;;;;;;;;;;;;5053637;28;19936;-76
2023/01/12 04:47:22;;;;;;;;;;;;;;;;;;5053949;28;19913;-76
2023/01/12 04:49:48;;;;;;;;;;;;;;;;;;5052504;28;19912;-75
2023/01/12 04:52:14;;;;;;;;;;;;;;;;;;5054001;28;20002;-75
2023/01/12 04:54:40;;;;;;;;;;;;;;;;;;5053656;28;19916;-75
2023/01/12 04:57:06;;;;;;;;;;;;;;;;;;5053701;28;19909;-75
2023/01/12 04:59:32;;;;;;;;;;;;;;;;;;5053622;28;20316;-75
2023/01/12 05:01:58;;;;;;;;;;;;;;;;;;5053630;28;20384;-75
2023/01/12 05:04:25;;;;;;;;;;;;;;;;;;5053783;28;20325;-76
2023/01/12 05:06:50;;;;;;;;;;;;;;;;;;5053582;28;19999;-76
2023/01/12 05:12:01;;;;;;;;;;;;;;;;;;5053304;28;20391;-76
2023/01/12 05:14:28;;;;;;;;;;;;;;;;;;5053698;28;19943;-76
2023/01/12 05:16:54;;;;;;;;;;;;;;;;;;5053535;28;19909;-76
2023/01/12 05:19:19;;;;;;;;;;;;;;;;;;5057206;28;19962;-76
2023/01/12 05:21:45;;;;;;;;;;;;;;;;;;5057589;28;19916;-76
2023/01/12 05:24:11;;;;;;;;;;;;;;;;;;5057743;28;19909;-76
2023/01/12 05:26:37;;;;;;;;;;;;;;;;;;5057828;28;20347;-76
2023/01/12 05:29:03;;;;;;;;;;;;;;;;;;5056191;28;19909;-75
2023/01/12 05:31:29;;;;;;;;;;;;;;;;;;5057413;28;19909;-75
2023/01/12 05:33:55;;;;;;;;;;;;;;;;;;5057408;28;19913;-76
2023/01/12 05:36:21;;;;;;;;;;;;;;;;;;5056986;28;19923;-75
2023/01/12 05:38:47;;;;;;;;;;;;;;;;;;5055946;28;19921;-75
2023/01/12 05:41:13;;;;;;;;;;;;;;;;;;5057234;28;19961;-76
2023/01/12 05:43:53;;;;;;;;;;;;;;;;;;5057202;28;20393;-76
2023/01/12 05:46:19;;;;;;;;;;;;;;;;;;5057495;28;19909;-76
2023/01/12 05:48:45;;;;;;;;;;;;;;;;;;5057120;28;19909;-75
2023/01/12 05:51:11;;;;;;;;;;;;;;;;;;5057129;28;20325;-76
2023/01/12 05:53:37;;;;;;;;;;;;;;;;;;5056939;28;19920;-76
2023/01/12 05:56:02;;;;;;;;;;;;;;;;;;5057170;28;19908;-75
2023/01/12 05:58:28;;;;;;;;;;;;;;;;;;5057106;28;20284;-76
2023/01/12 06:00:54;;;;;;;;;;;;;;;;;;5056961;28;20387;-76
2023/01/12 06:03:20;;;;;;;;;;;;;;;;;;5056885;28;19955;-76
2023/01/12 06:05:46;;;;;;;;;;;;;;;;;;5056810;28;19909;-76
2023/01/12 06:08:12;;;;;;;;;;;;;;;;;;5056774;28;19909;-77
2023/01/12 06:10:39;;;;;;;;;;;;;;;;;;5056753;28;19959;-76
2023/01/12 06:15:50;;;;;;;;;;;;;;;;;;5056437;28;20292;-76
2023/01/12 06:18:17;;;;;;;;;;;;;;;;;;5055237;28;19999;-76
2023/01/12 06:20:43;;;;;;;;;;;;;;;;;;5056587;28;19916;-76
2023/01/12 06:23:09;;;;;;;;;;;;;;;;;;5055260;28;19909;-76
2023/01/12 06:25:35;;;;;;;;;;;;;;;;;;5056464;28;19916;-76
2023/01/12 06:28:01;;;;;;;;;;;;;;;;;;5056349;28;20258;-75
2023/01/12 06:30:27;;;;;;;;;;;;;;;;;;5056551;28;20377;-76
2023/01/12 06:32:53;;;;;;;;;;;;;;;;;;5056305;28;19956;-76
2023/01/12 06:35:19;;;;;;;;;;;;;;;;;;5056073;28;19924;-76
2023/01/12 06:37:44;;;;;;;;;;;;;;;;;;5056133;28;20479;-77
2023/01/12 06:40:10;;;;;;;;;;;;;;;;;;5056131;28;19916;-77
2023/01/12 06:42:40;;;;;;;;;;;;;;;;;;5056320;28;19920;-77
2023/01/12 06:45:06;;;;;;;;;;;;;;;;;;5056163;28;20031;-75
2023/01/12 06:47:32;;;;;;;;;;;;;;;;;;5056091;28;19963;-76
2023/01/12 06:49:58;;;;;;;;;;;;;;;;;;5055920;28;19931;-75
2023/01/12 06:52:24;;;;;;;;;;;;;;;;;;5055830;28;19912;-77
2023/01/12 06:54:50;;;;;;;;;;;;;;;;;;5055964;28;20328;-76
2023/01/12 06:57:16;;;;;;;;;;;;;;;;;;5055628;28;19953;-75
2023/01/12 06:59:42;;;;;;;;;;;;;;;;;;5055748;28;19967;-76
2023/01/12 07:02:08;;;;;;;;;;;;;;;;;;5056146;28;19909;-76
2023/01/12 07:04:34;;;;;;;;;;;;;;;;;;5055948;28;19909;-76
2023/01/12 07:07:00;;;;;;;;;;;;;;;;;;5055840;28;19915;-76
2023/01/12 07:09:25;;;;;;;;;;;;;;;;;;5055766;28;20011;-76
2023/01/12 07:11:51;;;;;;;;;;;;;;;;;;5055548;28;19956;-76
2023/01/12 07:14:17;;;;;;;;;;;;;;;;;;5055680;28;19962;-76
2023/01/12 07:16:43;;;;;;;;;;;;;;;;;;5055471;28;19917;-76
2023/01/12 07:19:09;;;;;;;;;;;;;;;;;;5055483;28;20328;-76
2023/01/12 07:21:35;;;;;;;;;;;;;;;;;;5054112;28;19913;-76
2023/01/12 07:24:01;;;;;;;;;;;;;;;;;;5055767;28;19909;-76
2023/01/12 07:26:27;;;;;;;;;;;;;;;;;;5055330;28;19999;-76
2023/01/12 07:28:53;;;;;;;;;;;;;;;;;;5055492;28;19909;-76
2023/01/12 07:31:19;;;;;;;;;;;;;;;;;;5055344;28;20319;-76
2023/01/12 07:33:45;;;;;;;;;;;;;;;;;;5053870;28;20400;-76
2023/01/12 07:36:12;;;;;;;;;;;;;;;;;;5055009;28;19917;-76
2023/01/12 07:38:38;;;;;;;;;;;;;;;;;;5055100;28;19917;-77
2023/01/12 07:41:03;;;;;;;;;;;;;;;;;;5054640;28;19917;-77
2023/01/12 07:43:31;;;;;;;;;;;;;;;;;;5054994;28;20004;-76
2023/01/12 07:45:57;;;;;;;;;;;;;;;;;;5055147;28;19913;-76
2023/01/12 07:48:23;;;;;;;;;;;;;;;;;;5055028;28;20335;-76
2023/01/12 07:50:49;;;;;;;;;;;;;;;;;;5055026;28;19954;-77
2023/01/12 07:53:15;;;;;;;;;;;;;;;;;;5054764;28;19920;-77
2023/01/12 07:55:44;;;;;;;;;;;;;;;;;;5054938;28;19908;-77
2023/01/12 07:58:10;;;;;;;;;;;;;;;;;;5054891;28;19913;-76
2023/01/12 08:00:36;;;;;;;;;;;;;;;;;;5054651;28;20431;-76
2023/01/12 08:03:02;;;;;;;;;;;;;;;;;;5054617;28;20016;-76
2023/01/12 08:05:28;;;;;;;;;;;;;;;;;;5055000;28;20007;-76
2023/01/12 08:07:55;;;;;;;;;;;;;;;;;;5054913;28;19951;-76
2023/01/12 08:10:21;;;;;;;;;;;;;;;;;;5055025;28;20369;-76
2023/01/12 08:12:47;;;;;;;;;;;;;;;;;;5054384;28;20003;-76
2023/01/12 08:15:13;;;;;;;;;;;;;;;;;;5054432;28;19909;-75
2023/01/12 08:17:39;;;;;;;;;;;;;;;;;;5054740;28;19908;-76
2023/01/12 08:20:05;;;;;;;;;;;;;;;;;;5054308;28;19908;-76
2023/01/12 08:22:31;;;;;;;;;;;;;;;;;;5054237;28;19955;-76
2023/01/12 08:24:58;;;;;;;;;;;;;;;;;;5054183;28;19962;-76
2023/01/12 08:27:24;;;;;;;;;;;;;;;;;;5054162;28;19909;-76
2023/01/12 08:29:50;;;;;;;;;;;;;;;;;;5054123;28;20415;-76
2023/01/12 08:32:17;;;;;;;;;;;;;;;;;;5054427;28;19916;-75
2023/01/12 08:34:43;;;;;;;;;;;;;;;;;;5054093;28;19923;-77
2023/01/12 08:37:09;;;;;;;;;;;;;;;;;;5054104;28;19995;-76
2023/01/12 08:39:35;;;;;;;;;;;;;;;;;;5053965;28;19975;-76
2023/01/12 08:42:01;;;;;;;;;;;;;;;;;;5053982;28;20372;-76
2023/01/12 08:44:33;;;;;;;;;;;;;;;;;;5054078;28;19961;-76
2023/01/12 08:46:59;;;;;;;;;;;;;;;;;;5053860;28;19909;-75
2023/01/12 08:49:25;;;;;;;;;;;;;;;;;;5053826;28;20361;-76
2023/01/12 08:51:52;;;;;;;;;;;;;;;;;;5053258;28;19916;-77
2023/01/12 08:54:18;;;;;;;;;;;;;;;;;;5053709;28;19962;-75
2023/01/12 08:56:44;;;;;;;;;;;;;;;;;;5053714;28;19909;-76
2023/01/12 08:59:11;;;;;;;;;;;;;;;;;;5053743;28;19917;-76
2023/01/12 09:01:37;;;;;;;;;;;;;;;;;;5053644;28;20273;-77
2023/01/12 09:04:03;;;;;;;;;;;;;;;;;;5053654;28;19916;-75
2023/01/12 09:06:29;;;;;;;;;;;;;;;;;;5053596;28;19909;-76
2023/01/12 09:08:55;;;;;;;;;;;;;;;;;;5053586;28;20003;-76
2023/01/12 09:11:21;;;;;;;;;;;;;;;;;;5053548;28;19909;-76
2023/01/12 09:13:47;;;;;;;;;;;;;;;;;;5053742;28;19920;-77
2023/01/12 09:16:13;;;;;;;;;;;;;;;;;;5053531;28;19916;-76
2023/01/12 09:18:39;;;;;;;;;;;;;;;;;;5052063;28;19913;-76
2023/01/12 09:21:05;;;;;;;;;;;;;;;;;;5053468;28;19916;-76
2023/01/12 09:23:31;;;;;;;;;;;;;;;;;;5053460;28;19909;-76
2023/01/12 09:25:57;;;;;;;;;;;;;;;;;;5052188;28;19920;-77
2023/01/12 09:28:23;;;;;;;;;;;;;;;;;;5053522;28;19909;-75
2023/01/12 09:30:49;;;;;;;;;;;;;;;;;;5053508;28;20437;-76
2023/01/12 09:33:15;;;;;;;;;;;;;;;;;;5053338;28;19908;-76
2023/01/12 09:35:43;;;;;;;;;;;;;;;;;;5053240;28;19917;-76
2023/01/12 09:38:09;;;;;;;;;;;;;;;;;;5053288;28;19917;-76
2023/01/12 09:40:35;;;;;;;;;;;;;;;;;;5053442;28;19916;-76
2023/01/12 09:48:31;;;;;;;;;;;;;;;;;;5053147;28;19963;-75
2023/01/12 09:50:56;;;;;;;;;;;;;;;;;;5053302;28;19909;-77
2023/01/12 09:53:22;;;;;;;;;;;;;;;;;;5053182;28;19916;-76
2023/01/12 09:55:48;;;;;;;;;;;;;;;;;;5051830;28;19909;-76
2023/01/12 09:58:14;;;;;;;;;;;;;;;;;;5053067;28;19962;-75
2023/01/12 10:00:40;;;;;;;;;;;;;;;;;;5053103;28;19995;-76
2023/01/12 10:03:06;;;;;;;;;;;;;;;;;;5053038;28;19955;-76
2023/01/12 10:05:32;;;;;;;;;;;;;;;;;;5056792;28;19915;-75
2023/01/12 10:07:58;;;;;;;;;;;;;;;;;;5057103;28;19909;-77
2023/01/12 10:10:24;;;;;;;;;;;;;;;;;;5056758;28;19962;-76
2023/01/12 10:12:50;;;;;;;;;;;;;;;;;;5056773;28;20051;-76
2023/01/12 10:15:16;;;;;;;;;;;;;;;;;;5056679;28;19916;-77
2023/01/12 10:17:42;;;;;;;;;;;;;;;;;;5056547;28;19909;-75
2023/01/12 10:20:07;;;;;;;;;;;;;;;;;;5056705;28;19913;-76
2023/01/12 10:22:37;;;;;;;;;;;;;;;;;;5056568;28;20003;-77
2023/01/12 10:25:03;;;;;;;;;;;;;;;;;;5056469;28;19931;-76
2023/01/12 10:27:30;;;;;;;;;;;;;;;;;;5056402;28;19917;-75
2023/01/12 10:29:56;;;;;;;;;;;;;;;;;;5056420;28;19932;-77
2023/01/12 10:32:22;;;;;;;;;;;;;;;;;;5056921;28;19913;-76
2023/01/12 10:34:48;;;;;;;;;;;;;;;;;;5056051;28;19920;-76
2023/01/12 10:37:13;;;;;;;;;;;;;;;;;;5056260;28;19962;-77
2023/01/12 10:39:42;;;;;;;;;;;;;;;;;;5056159;28;19916;-76
2023/01/12 10:42:08;;;;;;;;;;;;;;;;;;5056352;28;19913;-77
2023/01/12 10:44:34;;;;;;;;;;;;;;;;;;5056069;28;19916;-76
2023/01/12 10:46:59;;;;;;;;;;;;;;;;;;5056066;28;19916;-77
2023/01/12 10:49:25;;;;;;;;;;;;;;;;;;5054743;28;19909;-77
2023/01/12 10:51:51;;;;;;;;;;;;;;;;;;5055995;28;19909;-77
2023/01/12 10:54:17;;;;;;;;;;;;;;;;;;5055932;28;19913;-77
2023/01/12 10:56:43;;;;;;;;;;;;;;;;;;5055924;28;19924;-76
2023/01/12 10:59:09;;;;;;;;;;;;;;;;;;5055746;28;19959;-77
2023/01/12 11:01:35;;;;;;;;;;;;;;;;;;5056199;28;20285;-76
2023/01/12 11:04:01;;;;;;;;;;;;;;;;;;5056108;28;19909;-76
2023/01/12 11:06:27;;;;;;;;;;;;;;;;;;5055631;28;19996;-76
2023/01/12 11:08:53;;;;;;;;;;;;;;;;;;5055685;28;19909;-76
2023/01/12 11:11:19;;;;;;;;;;;;;;;;;;5054367;28;20319;-77
2023/01/12 11:13:45;;;;;;;;;;;;;;;;;;5055914;28;19909;-76
2023/01/12 11:16:11;;;;;;;;;;;;;;;;;;5054804;28;19958;-76
2023/01/12 11:18:37;;;;;;;;;;;;;;;;;;5055451;28;20029;-76
2023/01/12 11:21:03;;;;;;;;;;;;;;;;;;5055446;28;19909;-77
2023/01/12 11:23:29;;;;;;;;;;;;;;;;;;5055830;28;20280;-77
2023/01/12 11:25:55;;;;;;;;;;;;;;;;;;5055366;28;19909;-77
2023/01/12 11:28:21;;;;;;;;;;;;;;;;;;5054047;28;20063;-78
2023/01/12 11:30:47;;;;;;;;;;;;;;;;;;5055283;28;20388;-76
2023/01/12 11:33:13;;;;;;;;;;;;;;;;;;5055274;28;20372;-76
2023/01/12 11:35:39;;;;;;;;;;;;;;;;;;5054938;28;19916;-77
2023/01/12 11:38:05;;;;;;;;;;;;;;;;;;5055227;28;19917;-77
2023/01/12 11:40:31;;;;;;;;;;;;;;;;;;5055088;28;19916;-77
2023/01/12 11:45:42;;;;;;;;;;;;;;;;;;5054794;28;20459;-77
2023/01/12 11:48:08;;;;;;;;;;;;;;;;;;5055124;28;19917;-77
2023/01/12 11:50:34;;;;;;;;;;;;;;;;;;5053412;28;19909;-77
2023/01/12 11:53:04;;;;;;;;;;;;;;;;;;5054863;28;19909;-77
2023/01/12 11:55:31;;;;;;;;;;;;;;;;;;5055190;28;19958;-77
2023/01/12 11:57:58;;;;;;;;;;;;;;;;;;5054641;28;19920;-77
2023/01/12 12:00:24;;;;;;;;;;;;;;;;;;5054851;28;19909;-77
2023/01/12 12:02:50;;;;;;;;;;;;;;;;;;5054627;28;19916;-77
2023/01/12 12:05:15;;;;;;;;;;;;;;;;;;5054808;28;19909;-77
2023/01/12 12:07:42;;;;;;;;;;;;;;;;;;5053304;28;19908;-77
2023/01/12 12:10:08;;;;;;;;;;;;;;;;;;5054681;28;19916;-77
2023/01/12 12:12:34;;;;;;;;;;;;;;;;;;5054530;28;20018;-77
2023/01/12 12:15:00;;;;;;;;;;;;;;;;;;5054506;28;20336;-76
2023/01/12 12:17:25;;;;;;;;;;;;;;;;;;5054365;28;20319;-76
2023/01/12 12:19:51;;;;;;;;;;;;;;;;;;5054236;28;19912;-76
2023/01/12 12:22:17;;;;;;;;;;;;;;;;;;5054293;28;19913;-75
2023/01/12 12:24:45;;;;;;;;;;;;;;;;;;5054455;28;19916;-77
2023/01/12 12:27:11;;;;;;;;;;;;;;;;;;5054069;28;19908;-76
2023/01/12 12:29:37;;;;;;;;;;;;;;;;;;5054106;28;20281;-76
2023/01/12 12:32:03;;;;;;;;;;;;;;;;;;5054119;28;20396;-76
2023/01/12 12:34:29;;;;;;;;;;;;;;;;;;5052625;28;19944;-77
2023/01/12 12:36:55;;;;;;;;;;;;;;;;;;5054219;28;19908;-76
2023/01/12 12:39:21;;;;;;;;;;;;;;;;;;5053905;28;19939;-76
2023/01/12 12:47:16;;;;;;;;;;;;;;;;;;5053735;28;19959;-76
2023/01/12 12:49:42;;;;;;;;;;;;;;;;;;5053761;28;19995;-76
2023/01/12 12:52:08;;;;;;;;;;;;;;;;;;5052528;28;19979;-76
2023/01/12 12:54:33;;;;;;;;;;;;;;;;;;5053612;28;20381;-76
2023/01/12 12:56:59;;;;;;;;;;;;;;;;;;5053724;28;19943;-76
2023/01/12 12:59:25;;;;;;;;;;;;;;;;;;5053860;28;19921;-77
2023/01/12 13:01:52;;;;;;;;;;;;;;;;;;5053789;28;20007;-76
2023/01/12 13:04:18;;;;;;;;;;;;;;;;;;5053660;28;19960;-77
2023/01/12 13:06:44;;;;;;;;;;;;;;;;;;5053973;28;19935;-76
2023/01/12 13:09:10;;;;;;;;;;;;;;;;;;5053832;28;19908;-76
2023/01/12 13:11:36;;;;;;;;;;;;;;;;;;5053589;28;19916;-76
2023/01/12 13:14:01;;;;;;;;;;;;;;;;;;5053498;28;19909;-76
2023/01/12 13:16:28;;;;;;;;;;;;;;;;;;5053850;28;19912;-77
2023/01/12 13:18:54;;;;;;;;;;;;;;;;;;5053422;28;19913;-76
2023/01/12 13:21:20;;;;;;;;;;;;;;;;;;5052007;28;20288;-77
2023/01/12 13:23:46;;;;;;;;;;;;;;;;;;5053545;28;20449;-76
2023/01/12 13:26:12;;;;;;;;;;;;;;;;;;5053852;28;20007;-76
2023/01/12 13:28:41;;;;;;;;;;;;;;;;;;5053761;28;19947;-77
2023/01/12 13:31:07;;;;;;;;;;;;;;;;;;5053400;28;19912;-77
2023/01/12 13:33:34;;;;;;;;;;;;;;;;;;5053391;28;19931;-77
2023/01/12 13:36:00;;;;;;;;;;;;;;;;;;5053019;28;20265;-76
2023/01/12 13:38:30;;;;;;;;;;;;;;;;;;5053593;28;19924;-76
2023/01/12 13:40:56;;;;;;;;;;;;;;;;;;5057336;28;20365;-77
2023/01/12 13:43:22;;;;;;;;;;;;;;;;;;5057300;28;19908;-76
2023/01/12 13:45:48;;;;;;;;;;;;;;;;;;5057367;28;19951;-76
2023/01/12 13:48:14;;;;;;;;;;;;;;;;;;5057211;28;19909;-76
2023/01/12 13:50:40;;;;;;;;;;;;;;;;;;5057129;28;19916;-77
2023/01/12 13:53:06;;;;;;;;;;;;;;;;;;5057316;28;19932;-76
2023/01/12 13:55:34;;;;;;;;;;;;;;;;;;5057643;28;20349;-76
2023/01/12 13:58:00;;;;;;;;;;;;;;;;;;5055695;28;19909;-76
2023/01/12 14:00:26;;;;;;;;;;;;;;;;;;5056973;28;20055;-76
2023/01/12 14:02:52;;;;;;;;;;;;;;;;;;5055716;28;19909;-76
2023/01/12 14:05:18;;;;;;;;;;;;;;;;;;5056931;28;19920;-77
2023/01/12 14:07:44;;;;;;;;;;;;;;;;;;5056880;28;19991;-77
2023/01/12 14:10:10;;;;;;;;;;;;;;;;;;5056817;28;19915;-77
2023/01/12 14:12:35;;;;;;;;;;;;;;;;;;5057125;28;19908;-76
2023/01/12 14:17:51;;;;;;;;;;;;;;;;;;5056401;28;19935;-76
2023/01/12 14:20:17;;;;;;;;;;;;;;;;;;5056558;28;20008;-77
2023/01/12 14:22:44;;;;;;;;;;;;;;;;;;5056579;28;19944;-76
2023/01/12 14:25:10;;;;;;;;;;;;;;;;;;5056660;28;19909;-76
2023/01/12 14:27:37;;;;;;;;;;;;;;;;;;5056632;28;19909;-76
2023/01/12 14:30:03;;;;;;;;;;;;;;;;;;5055123;28;19909;-76
2023/01/12 14:32:29;;;;;;;;;;;;;;;;;;5056420;28;19909;-76
2023/01/12 14:34:56;;;;;;;;;;;;;;;;;;5056116;28;19944;-77
2023/01/12 14:37:22;;;;;;;;;;;;;;;;;;5054725;28;19909;-76
2023/01/12 14:39:48;;;;;;;;;;;;;;;;;;5056244;28;19961;-76
2023/01/12 14:47:43;;;;;;;;;;;;;;;;;;5056035;28;19916;-77
2023/01/12 14:50:09;;;;;;;;;;;;;;;;;;5053503;28;20003;-76
2023/01/12 14:52:35;;;;;;;;;;;;;;;;;;5056016;28;20357;-76
2023/01/12 14:55:02;;;;;;;;;;;;;;;;;;5055910;28;19916;-76
2023/01/12 14:57:27;;;;;;;;;;;;;;;;;;5056129;28;19913;-77
2023/01/12 14:59:53;;;;;;;;;;;;;;;;;;5055790;28;19920;-77
2023/01/12 15:02:19;;;;;;;;;;;;;;;;;;5056054;28;19947;-77
2023/01/12 15:04:45;;;;;;;;;;;;;;;;;;5054491;28;19909;-76
2023/01/12 15:07:11;;;;;;;;;;;;;;;;;;5056018;28;19916;-77
2023/01/12 15:09:37;;;;;;;;;;;;;;;;;;5055658;28;19913;-76
2023/01/12 15:12:03;;;;;;;;;;;;;;;;;;5055700;28;19909;-76
2023/01/12 15:14:29;;;;;;;;;;;;;;;;;;5055623;28;19915;-77
2023/01/12 15:27:53;;;;;;;;;;;;;;;;;;5055304;28;20054;-77
2023/01/12 15:30:19;;;;;;;;;;;;;;;;;;5054033;28;20381;-77
2023/01/12 15:32:45;;;;;;;;;;;;;;;;;;5055440;28;19963;-76
2023/01/12 15:35:11;;;;;;;;;;;;;;;;;;5054974;28;19917;-77
2023/01/12 15:37:37;;;;;;;;;;;;;;;;;;5055581;28;19917;-77
2023/01/12 15:40:03;;;;;;;;;;;;;;;;;;5055095;28;19924;-77
2023/01/12 15:42:29;;;;;;;;;;;;;;;;;;5055081;28;19931;-76
2023/01/12 15:44:55;;;;;;;;;;;;;;;;;;5054994;28;19909;-77
2023/01/12 15:47:21;;;;;;;;;;;;;;;;;;5054977;28;19909;-77
2023/01/12 15:49:47;;;;;;;;;;;;;;;;;;5054970;28;19935;-77
2023/01/12 15:52:13;;;;;;;;;;;;;;;;;;5054886;28;19908;-77
2023/01/12 15:54:39;;;;;;;;;;;;;;;;;;5054737;28;19908;-76
2023/01/12 15:57:05;;;;;;;;;;;;;;;;;;5054756;28;19915;-75
2023/01/12 15:59:32;;;;;;;;;;;;;;;;;;5054675;28;19935;-76
2023/01/12 16:01:58;;;;;;;;;;;;;;;;;;5054560;28;19920;-76
2023/01/12 16:04:24;;;;;;;;;;;;;;;;;;5054654;28;19909;-76
2023/01/12 16:06:50;;;;;;;;;;;;;;;;;;5054673;28;19939;-76
2023/01/12 16:09:16;;;;;;;;;;;;;;;;;;5054555;28;20365;-77
2023/01/12 16:11:42;;;;;;;;;;;;;;;;;;5054549;28;20329;-76
2023/01/12 16:14:08;;;;;;;;;;;;;;;;;;5054652;28;19962;-76
2023/01/12 16:16:34;;;;;;;;;;;;;;;;;;5054437;28;20376;-76
2023/01/12 16:19:00;;;;;;;;;;;;;;;;;;5054355;28;19913;-76
2023/01/12 16:21:26;;;;;;;;;;;;;;;;;;5054617;28;19913;-76
2023/01/12 16:23:52;;;;;;;;;;;;;;;;;;5054505;28;19975;-76
2023/01/12 16:26:18;;;;;;;;;;;;;;;;;;5054423;28;20399;-76
2023/01/12 16:28:44;;;;;;;;;;;;;;;;;;5054213;28;19913;-75
2023/01/12 16:31:11;;;;;;;;;;;;;;;;;;5054130;28;20000;-77
2023/01/12 16:33:37;;;;;;;;;;;;;;;;;;5054117;28;19909;-76
2023/01/12 16:36:03;;;;;;;;;;;;;;;;;;5053789;28;19970;-76
2023/01/12 16:38:31;;;;;;;;;;;;;;;;;;5053161;28;20392;-76
2023/01/12 16:40:58;;;;;;;;;;;;;;;;;;5053971;28;19913;-76
2023/01/12 16:43:25;;;;;;;;;;;;;;;;;;5053871;28;19909;-76
2023/01/12 16:45:51;;;;;;;;;;;;;;;;;;5054074;28;19908;-77
2023/01/12 16:48:16;;;;;;;;;;;;;;;;;;5054072;28;19909;-75
2023/01/12 16:50:42;;;;;;;;;;;;;;;;;;5053827;28;19956;-76
2023/01/12 16:53:08;;;;;;;;;;;;;;;;;;5053820;28;19908;-76
2023/01/12 16:55:34;;;;;;;;;;;;;;;;;;5053813;28;20417;-76
2023/01/12 16:58:00;;;;;;;;;;;;;;;;;;5053661;28;19916;-76
2023/01/12 17:00:26;;;;;;;;;;;;;;;;;;5053708;28;19912;-76
2023/01/12 17:02:52;;;;;;;;;;;;;;;;;;5053781;28;19909;-77
2023/01/12 17:05:19;;;;;;;;;;;;;;;;;;5053686;28;19909;-77
2023/01/12 17:07:45;;;;;;;;;;;;;;;;;;5053883;28;19916;-76
2023/01/12 17:10:11;;;;;;;;;;;;;;;;;;5053973;28;20368;-76
2023/01/12 17:12:37;;;;;;;;;;;;;;;;;;5053364;28;20007;-75
2023/01/12 17:15:03;;;;;;;;;;;;;;;;;;5053264;28;19908;-76
2023/01/12 17:17:28;;;;;;;;;;;;;;;;;;5053447;28;19909;-76
2023/01/12 17:19:54;;;;;;;;;;;;;;;;;;5053800;28;20373;-76
2023/01/12 17:22:20;;;;;;;;;;;;;;;;;;5053495;28;19955;-76
2023/01/12 17:24:46;;;;;;;;;;;;;;;;;;5053471;28;19912;-77
2023/01/12 17:27:12;;;;;;;;;;;;;;;;;;5053473;28;20332;-77